Time;durP1;ratioP1;P1;durP2;ratioP2;P2;SDS_P1;SDS_P2;PMS_P1;PMS_P2;Temp;Humidity;BMP_temperature;BMP_pressure;BME280_temperature;BME280_humidity;BME280_pressure;Samples;Min_cycle;Max_cycle;Signal;HPM_P1;HPM_P2
2022/12/04 00:01:24;;;;;;;0.20;0.10;;;;;;;;;;5009924;28;20084;-80
2022/12/04 00:03:54;;;;;;;0.20;0.10;;;;;;;;;;5004097;28;20172;-80
2022/12/04 00:06:21;;;;;;;0.20;0.20;;;;;;;;;;4964054;28;20069;-81
2022/12/04 00:08:47;;;;;;;0.32;0.25;;;;;;;;;;4989993;28;20044;-79
2022/12/04 00:11:14;;;;;;;0.20;0.10;;;;;;;;;;4970099;28;20034;-81
2022/12/04 00:13:40;;;;;;;0.20;0.10;;;;;;;;;;5007678;28;20037;-80
2022/12/04 00:16:07;;;;;;;0.20;0.20;;;;;;;;;;4972941;28;20562;-79
2022/12/04 00:18:33;;;;;;;0.20;0.17;;;;;;;;;;5000167;28;20424;-80
2022/12/04 00:21:02;;;;;;;0.50;0.50;;;;;;;;;;4988092;28;20041;-82
2022/12/04 00:23:28;;;;;;;0.20;0.10;;;;;;;;;;4991918;28;20069;-81
2022/12/04 00:25:59;;;;;;;0.20;0.20;;;;;;;;;;5012922;28;20056;-80
2022/12/04 00:28:25;;;;;;;0.20;0.10;;;;;;;;;;4994570;28;20136;-79
2022/12/04 00:30:51;;;;;;;0.73;0.73;;;;;;;;;;4973498;28;20571;-82
2022/12/04 00:33:17;;;;;;;0.20;0.17;;;;;;;;;;4982947;28;20048;-80
2022/12/04 00:35:43;;;;;;;0.40;0.40;;;;;;;;;;4996211;28;20041;-80
2022/12/04 00:38:09;;;;;;;0.20;0.13;;;;;;;;;;4985129;28;20056;-81
2022/12/04 00:40:35;;;;;;;0.20;0.10;;;;;;;;;;4973661;28;20053;-80
2022/12/04 00:43:01;;;;;;;0.20;0.10;;;;;;;;;;4990441;28;20038;-80
2022/12/04 00:45:27;;;;;;;0.20;0.13;;;;;;;;;;4972075;28;20036;-81
2022/12/04 00:47:53;;;;;;;0.88;0.88;;;;;;;;;;4974976;28;20046;-81
2022/12/04 00:50:19;;;;;;;0.20;0.10;;;;;;;;;;4990311;28;20806;-80
2022/12/04 00:52:45;;;;;;;0.20;0.10;;;;;;;;;;4994079;28;20041;-80
2022/12/04 00:55:11;;;;;;;0.50;0.50;;;;;;;;;;4995805;28;20053;-81
2022/12/04 00:57:37;;;;;;;0.20;0.20;;;;;;;;;;4981620;28;20041;-81
2022/12/04 01:00:04;;;;;;;0.20;0.10;;;;;;;;;;5006203;28;20048;-79
2022/12/04 01:02:30;;;;;;;5.68;2.72;;;;;;;;;;4994764;28;20064;-81
2022/12/04 01:04:56;;;;;;;0.20;0.10;;;;;;;;;;4994195;28;20038;-82
2022/12/04 01:07:22;;;;;;;0.22;0.15;;;;;;;;;;4970756;28;20698;-82
2022/12/04 01:09:48;;;;;;;0.20;0.10;;;;;;;;;;5004070;28;20412;-82
2022/12/04 01:12:14;;;;;;;0.20;0.20;;;;;;;;;;4991331;28;20044;-81
2022/12/04 01:14:40;;;;;;;0.20;0.10;;;;;;;;;;4997668;28;20746;-81
2022/12/04 01:17:06;;;;;;;0.20;0.10;;;;;;;;;;4989811;28;20046;-81
2022/12/04 01:19:32;;;;;;;0.40;0.30;;;;;;;;;;4979792;28;20480;-81
2022/12/04 01:21:58;;;;;;;0.20;0.10;;;;;;;;;;4994321;28;20125;-81
2022/12/04 01:24:24;;;;;;;0.20;0.10;;;;;;;;;;5016966;28;20497;-81
2022/12/04 01:26:50;;;;;;;0.50;0.50;;;;;;;;;;4992576;28;20034;-83
2022/12/04 01:29:16;;;;;;;0.20;0.10;;;;;;;;;;4982368;28;20041;-80
2022/12/04 01:31:42;;;;;;;0.20;0.10;;;;;;;;;;4996260;28;20050;-82
2022/12/04 01:34:08;;;;;;;0.20;0.20;;;;;;;;;;4983023;28;20045;-79
2022/12/04 01:36:34;;;;;;;0.20;0.10;;;;;;;;;;4989746;28;20090;-81
2022/12/04 01:39:00;;;;;;;0.20;0.10;;;;;;;;;;5018073;28;20047;-81
2022/12/04 01:41:27;;;;;;;0.20;0.10;;;;;;;;;;4980836;28;20046;-79
2022/12/04 01:44:32;;;;;;;0.20;0.10;;;;;;;;;;5016110;28;20437;-79
2022/12/04 01:46:59;;;;;;;0.20;0.10;;;;;;;;;;4917753;29;20051;-81
2022/12/04 01:49:51;;;;;;;0.38;0.38;;;;;;;;;;4904348;29;20699;-81
2022/12/04 01:52:19;;;;;;;0.20;0.10;;;;;;;;;;4960080;28;21068;-80
2022/12/04 01:54:47;;;;;;;0.20;0.10;;;;;;;;;;4998676;28;20041;-80
2022/12/04 01:57:14;;;;;;;0.47;0.47;;;;;;;;;;4979230;28;20041;-80
2022/12/04 02:00:07;;;;;;;0.20;0.20;;;;;;;;;;4997132;28;20041;-80
2022/12/04 02:02:35;;;;;;;0.20;0.20;;;;;;;;;;4978803;28;20136;-81
2022/12/04 02:05:01;;;;;;;0.20;0.20;;;;;;;;;;5016137;28;20041;-80
2022/12/04 02:07:28;;;;;;;0.35;0.35;;;;;;;;;;5000565;28;20040;-81
2022/12/04 02:09:54;;;;;;;3.03;1.38;;;;;;;;;;4999202;28;20095;-81
2022/12/04 02:12:20;;;;;;;0.20;0.10;;;;;;;;;;4981365;28;20714;-81
2022/12/04 02:15:05;;;;;;;0.20;0.20;;;;;;;;;;4982425;28;20115;-83
2022/12/04 02:17:39;;;;;;;0.38;0.30;;;;;;;;;;4984683;28;20787;-82
2022/12/04 02:20:19;;;;;;;0.30;0.30;;;;;;;;;;4987384;28;20033;-82
2022/12/04 02:22:52;;;;;;;0.20;0.10;;;;;;;;;;4997246;28;20064;-82
2022/12/04 02:25:30;;;;;;;0.20;0.10;;;;;;;;;;4990096;28;20040;-81
2022/12/04 02:27:56;;;;;;;0.20;0.10;;;;;;;;;;4984016;28;20072;-81
2022/12/04 02:30:22;;;;;;;4.70;4.38;;;;;;;;;;5005388;28;21941;-81
2022/12/04 02:32:57;;;;;;;0.20;0.10;;;;;;;;;;4992352;28;20126;-81
2022/12/04 02:35:35;;;;;;;0.25;0.25;;;;;;;;;;4996840;28;20049;-81
2022/12/04 02:38:18;;;;;;;0.20;0.20;;;;;;;;;;4975382;28;20052;-80
2022/12/04 02:40:53;;;;;;;0.20;0.10;;;;;;;;;;4985692;28;20578;-82
2022/12/04 02:43:23;;;;;;;0.20;0.10;;;;;;;;;;4994810;28;20042;-81
2022/12/04 02:46:00;;;;;;;2.47;2.28;;;;;;;;;;4997143;28;20052;-81
2022/12/04 02:48:27;;;;;;;0.20;0.10;;;;;;;;;;4984439;28;20044;-81
2022/12/04 02:50:55;;;;;;;0.20;0.10;;;;;;;;;;5025586;28;20045;-81
2022/12/04 02:53:27;;;;;;;0.20;0.10;;;;;;;;;;4996658;28;20069;-82
2022/12/04 02:55:55;;;;;;;0.20;0.10;;;;;;;;;;5013160;28;20041;-81
2022/12/04 02:58:25;;;;;;;0.20;0.10;;;;;;;;;;5023287;28;20103;-81
2022/12/04 03:00:52;;;;;;;0.20;0.10;;;;;;;;;;5010863;28;20040;-82
2022/12/04 03:03:21;;;;;;;0.20;0.10;;;;;;;;;;4992050;28;20041;-81
2022/12/04 03:05:47;;;;;;;0.20;0.10;;;;;;;;;;4998023;28;20033;-82
2022/12/04 03:08:15;;;;;;;0.40;0.30;;;;;;;;;;5008744;28;20048;-81
2022/12/04 03:10:45;;;;;;;0.20;0.10;;;;;;;;;;4987945;28;20109;-81
2022/12/04 03:13:15;;;;;;;0.30;0.30;;;;;;;;;;4992452;28;20496;-80
2022/12/04 03:15:46;;;;;;;0.20;0.10;;;;;;;;;;5003225;28;20041;-81
2022/12/04 03:18:15;;;;;;;0.20;0.10;;;;;;;;;;5000856;28;20045;-82
2022/12/04 03:20:41;;;;;;;1.45;0.95;;;;;;;;;;4997984;28;20496;-80
2022/12/04 03:23:21;;;;;;;0.20;0.10;;;;;;;;;;5003624;28;20040;-82
2022/12/04 03:25:57;;;;;;;0.20;0.10;;;;;;;;;;4982240;28;20041;-80
2022/12/04 03:28:27;;;;;;;0.20;0.10;;;;;;;;;;4985531;28;20037;-81
2022/12/04 03:30:56;;;;;;;0.20;0.10;;;;;;;;;;5013401;22;20131;-83
2022/12/04 03:33:38;;;;;;;4.60;2.75;;;;;;;;;;4977893;28;20045;-86
2022/12/04 03:36:36;;;;;;;1.85;1.45;;;;;;;;;;4979776;28;20029;-86
2022/12/04 03:39:07;;;;;;;0.20;0.20;;;;;;;;;;4999327;28;20329;-88
2022/12/04 03:41:43;;;;;;;0.20;0.10;;;;;;;;;;4988663;28;20033;-86
2022/12/04 03:44:16;;;;;;;1.30;1.20;;;;;;;;;;4998011;28;20052;-88
2022/12/04 03:47:08;;;;;;;0.20;0.15;;;;;;;;;;4994460;28;20029;-86
2022/12/04 03:49:42;;;;;;;0.20;0.10;;;;;;;;;;4958886;28;20840;-87
2022/12/04 03:52:13;;;;;;;0.20;0.10;;;;;;;;;;4998075;28;20045;-87
2022/12/04 03:54:46;;;;;;;0.20;0.10;;;;;;;;;;5009338;28;20041;-86
2022/12/04 03:57:26;;;;;;;0.20;0.10;;;;;;;;;;5007353;28;20535;-87
2022/12/04 03:59:59;;;;;;;0.20;0.10;;;;;;;;;;4992837;28;20041;-85
2022/12/04 04:02:52;;;;;;;0.20;0.10;;;;;;;;;;4995221;28;20389;-88
2022/12/04 04:05:36;;;;;;;0.20;0.20;;;;;;;;;;5012262;28;20077;-85
2022/12/04 04:08:29;;;;;;;0.20;0.10;;;;;;;;;;5009673;28;20041;-86
2022/12/04 04:11:17;;;;;;;0.20;0.10;;;;;;;;;;4998352;28;20048;-84
2022/12/04 04:25:14;;;;;;;0.20;0.17;;;;;;;;;;5027603;28;20209;-85
2022/12/04 04:27:52;;;;;;;0.20;0.10;;;;;;;;;;4991088;28;20040;-87
2022/12/04 04:30:19;;;;;;;0.20;0.10;;;;;;;;;;4990096;28;20042;-86
2022/12/04 04:32:47;;;;;;;0.20;0.10;;;;;;;;;;4996489;28;20072;-85
2022/12/04 04:35:43;;;;;;;1.00;1.00;;;;;;;;;;4990045;28;20704;-87
2022/12/04 04:38:15;;;;;;;5.28;4.80;;;;;;;;;;4988147;28;20056;-85
2022/12/04 04:41:02;;;;;;;0.98;0.65;;;;;;;;;;4991903;28;20048;-86
2022/12/04 04:44:10;;;;;;;0.65;0.65;;;;;;;;;;5012676;28;20344;-86
2022/12/04 04:47:02;;;;;;;0.20;0.10;;;;;;;;;;5026464;28;20044;-85
2022/12/04 04:49:39;;;;;;;0.20;0.10;;;;;;;;;;4995752;28;20437;-86
2022/12/04 04:52:22;;;;;;;0.20;0.10;;;;;;;;;;5008246;28;20045;-88
2022/12/04 04:54:58;;;;;;;0.20;0.10;;;;;;;;;;5007508;28;20044;-85
2022/12/04 04:57:46;;;;;;;0.38;0.38;;;;;;;;;;5004802;28;20075;-86
2022/12/04 05:00:20;;;;;;;0.52;0.50;;;;;;;;;;5002489;28;20044;-87
2022/12/04 05:02:49;;;;;;;0.20;0.10;;;;;;;;;;4986676;28;20083;-86
2022/12/04 05:05:16;;;;;;;0.20;0.10;;;;;;;;;;4992575;28;20071;-87
2022/12/04 05:07:42;;;;;;;0.20;0.10;;;;;;;;;;4995907;28;20041;-86
2022/12/04 05:10:09;;;;;;;0.20;0.10;;;;;;;;;;4980323;28;20057;-85
2022/12/04 05:12:44;;;;;;;2.55;2.38;;;;;;;;;;4990923;28;20504;-87
2022/12/04 05:15:10;;;;;;;0.30;0.30;;;;;;;;;;4992551;28;20551;-87
2022/12/04 05:17:41;;;;;;;0.20;0.10;;;;;;;;;;4989598;28;20059;-86
2022/12/04 05:20:10;;;;;;;0.65;0.65;;;;;;;;;;4977938;28;21427;-86
2022/12/04 05:22:39;;;;;;;0.28;0.28;;;;;;;;;;4987074;28;20671;-86
2022/12/04 05:25:11;;;;;;;0.20;0.10;;;;;;;;;;4995167;28;20037;-88
2022/12/04 05:27:37;;;;;;;0.20;0.10;;;;;;;;;;4983745;28;20039;-86
2022/12/04 05:30:06;;;;;;;0.20;0.10;;;;;;;;;;4993559;28;20049;-86
2022/12/04 05:32:35;;;;;;;0.20;0.10;;;;;;;;;;4984814;28;20198;-86
2022/12/04 05:35:04;;;;;;;0.20;0.10;;;;;;;;;;4990374;28;20048;-86
2022/12/04 05:37:31;;;;;;;0.20;0.20;;;;;;;;;;4978228;28;20044;-87
2022/12/04 05:39:57;;;;;;;0.22;0.22;;;;;;;;;;4991537;28;20041;-86
2022/12/04 05:42:25;;;;;;;0.80;0.80;;;;;;;;;;4980812;28;20525;-86
2022/12/04 05:44:52;;;;;;;0.20;0.13;;;;;;;;;;4987504;28;20041;-86
2022/12/04 05:47:23;;;;;;;0.20;0.10;;;;;;;;;;4983004;28;20492;-86
2022/12/04 05:49:52;;;;;;;0.25;0.20;;;;;;;;;;4982898;28;20043;-87
2022/12/04 05:52:18;;;;;;;0.20;0.10;;;;;;;;;;4975614;22;20049;-86
2022/12/04 05:58:00;;;;;;;0.40;0.40;;;;;;;;;;4996480;28;20569;-86
2022/12/04 06:00:26;;;;;;;0.25;0.20;;;;;;;;;;4958279;28;20898;-87
2022/12/04 06:02:53;;;;;;;0.20;0.10;;;;;;;;;;4978059;28;20784;-86
2022/12/04 06:05:21;;;;;;;1.05;1.05;;;;;;;;;;4975010;28;20045;-87
2022/12/04 06:08:33;;;;;;;0.20;0.10;;;;;;;;;;5003483;28;20068;-88
2022/12/04 06:10:59;;;;;;;0.20;0.10;;;;;;;;;;4977002;28;20666;-86
2022/12/04 06:13:30;;;;;;;0.20;0.15;;;;;;;;;;4974301;28;20622;-87
2022/12/04 06:15:59;;;;;;;0.22;0.15;;;;;;;;;;4968138;28;20094;-87
2022/12/04 06:18:44;;;;;;;0.20;0.10;;;;;;;;;;4995607;28;20155;-87
2022/12/04 06:21:15;;;;;;;0.20;0.13;;;;;;;;;;4983760;28;20033;-87
2022/12/04 06:23:41;;;;;;;0.22;0.15;;;;;;;;;;4966007;28;20065;-87
2022/12/04 06:26:08;;;;;;;0.20;0.10;;;;;;;;;;4964540;28;20060;-87
2022/12/04 06:28:34;;;;;;;0.20;0.10;;;;;;;;;;4968747;28;20787;-86
2022/12/04 06:31:05;;;;;;;0.20;0.10;;;;;;;;;;4971763;28;20042;-87
2022/12/04 06:33:35;;;;;;;0.85;0.85;;;;;;;;;;4973697;28;20527;-87
2022/12/04 06:36:08;;;;;;;0.20;0.15;;;;;;;;;;4987084;28;20075;-87
2022/12/04 06:38:34;;;;;;;0.20;0.10;;;;;;;;;;4974950;28;20040;-88
2022/12/04 06:41:12;;;;;;;0.45;0.45;;;;;;;;;;4984684;28;20052;-86
2022/12/04 06:44:04;;;;;;;0.20;0.10;;;;;;;;;;4973079;28;20049;-88
2022/12/04 06:46:39;;;;;;;0.20;0.10;;;;;;;;;;4965844;28;20055;-87
2022/12/04 06:49:12;;;;;;;0.20;0.10;;;;;;;;;;4981403;28;20221;-89
2022/12/04 06:51:58;;;;;;;0.20;0.10;;;;;;;;;;4974510;28;20048;-88
2022/12/04 06:54:25;;;;;;;0.20;0.10;;;;;;;;;;4985611;28;20049;-89
2022/12/04 06:56:58;;;;;;;0.20;0.10;;;;;;;;;;4967882;28;20052;-87
2022/12/04 06:59:35;;;;;;;0.20;0.10;;;;;;;;;;4980122;28;20037;-88
2022/12/04 07:02:30;;;;;;;;;;;;;;;;;;;;;
2022/12/04 07:05:09;;;;;;;0.20;0.20;;;;;;;;;;4987932;28;20061;-87
2022/12/04 07:07:44;;;;;;;0.50;0.50;;;;;;;;;;4959566;28;20284;-87
2022/12/04 07:10:24;;;;;;;0.20;0.20;;;;;;;;;;4956073;28;20553;-89
2022/12/04 07:16:33;;;;;;;0.40;0.40;;;;;;;;;;4946286;28;20084;-89
2022/12/04 07:19:00;;;;;;;0.20;0.10;;;;;;;;;;4953560;28;20428;-86
2022/12/04 07:21:27;;;;;;;0.20;0.10;;;;;;;;;;4952229;28;20103;-88
2022/12/04 07:24:06;;;;;;;0.30;0.30;;;;;;;;;;4969628;28;20124;-88
2022/12/04 07:26:44;;;;;;;0.20;0.20;;;;;;;;;;4984555;28;20510;-89
2022/12/04 07:29:33;;;;;;;0.20;0.15;;;;;;;;;;4976063;28;20082;-88
2022/12/04 07:32:02;;;;;;;0.20;0.10;;;;;;;;;;4981498;28;20451;-89
2022/12/04 07:34:34;;;;;;;0.20;0.10;;;;;;;;;;4970950;28;20033;-87
2022/12/04 07:37:26;;;;;;;0.52;0.52;;;;;;;;;;4991487;28;20048;-88
2022/12/04 07:40:09;;;;;;;0.20;0.10;;;;;;;;;;4974959;28;20397;-88
2022/12/04 07:42:41;;;;;;;0.20;0.10;;;;;;;;;;4987939;28;20030;-88
2022/12/04 07:45:07;;;;;;;;;;;;;;;;;;4967647;28;20452;-88
2022/12/04 07:47:36;;;;;;;0.40;0.35;;;;;;;;;;4988004;28;20087;-89
2022/12/04 07:50:09;;;;;;;0.20;0.10;;;;;;;;;;4967443;28;20770;-89
2022/12/04 07:52:36;;;;;;;;;;;;;;;;;;4975605;28;20091;-88
2022/12/04 07:55:08;;;;;;;0.20;0.20;;;;;;;;;;4984668;28;19932;-87
2022/12/04 07:57:34;;;;;;;2.35;2.03;;;;;;;;;;4994294;28;20053;-85
2022/12/04 08:00:00;;;;;;;0.55;0.55;;;;;;;;;;4990621;28;20042;-86
2022/12/04 08:02:26;;;;;;;0.30;0.30;;;;;;;;;;4966151;28;20064;-88
2022/12/04 08:04:55;;;;;;;0.20;0.10;;;;;;;;;;4978678;28;20084;-85
2022/12/04 08:07:24;;;;;;;0.20;0.10;;;;;;;;;;4978430;28;20810;-89
2022/12/04 08:09:50;;;;;;;0.20;0.20;;;;;;;;;;4972480;28;20045;-86
2022/12/04 08:12:16;;;;;;;0.20;0.20;;;;;;;;;;4987751;28;20072;-85
2022/12/04 08:14:42;;;;;;;7.53;5.05;;;;;;;;;;4964482;28;20052;-88
2022/12/04 08:17:11;;;;;;;0.20;0.10;;;;;;;;;;4979036;28;20511;-89
2022/12/04 08:19:37;;;;;;;0.20;0.10;;;;;;;;;;4985878;28;20140;-86
2022/12/04 08:22:03;;;;;;;0.20;0.20;;;;;;;;;;4967941;28;20072;-86
2022/12/04 08:24:29;;;;;;;0.75;0.70;;;;;;;;;;4951755;28;20643;-87
2022/12/04 08:26:56;;;;;;;0.20;0.10;;;;;;;;;;4974208;28;20051;-86
2022/12/04 08:29:22;;;;;;;0.20;0.10;;;;;;;;;;4992123;28;20383;-85
2022/12/04 08:31:48;;;;;;;0.20;0.10;;;;;;;;;;4978414;28;20034;-88
2022/12/04 08:34:14;;;;;;;0.20;0.10;;;;;;;;;;4974351;28;20457;-87
2022/12/04 08:36:41;;;;;;;0.20;0.10;;;;;;;;;;4979407;28;20038;-87
2022/12/04 08:39:07;;;;;;;0.20;0.10;;;;;;;;;;4979532;28;20030;-87
2022/12/04 08:41:38;;;;;;;0.20;0.10;;;;;;;;;;5000868;28;20068;-88
2022/12/04 08:44:05;;;;;;;0.20;0.15;;;;;;;;;;4971889;28;20033;-85
2022/12/04 08:47:05;;;;;;;1.15;1.05;;;;;;;;;;4992114;28;20029;-86
2022/12/04 08:49:37;;;;;;;0.20;0.17;;;;;;;;;;4985632;28;20103;-87
2022/12/04 08:52:03;;;;;;;0.20;0.20;;;;;;;;;;4965019;28;20037;-87
2022/12/04 08:54:29;;;;;;;0.68;0.68;;;;;;;;;;4989627;28;20033;-88
2022/12/04 08:56:55;;;;;;;0.20;0.10;;;;;;;;;;4983204;28;20835;-86
2022/12/04 08:59:21;;;;;;;0.20;0.10;;;;;;;;;;4978420;28;20052;-88
2022/12/04 09:01:50;;;;;;;0.20;0.10;;;;;;;;;;4970100;28;20038;-85
2022/12/04 09:04:16;;;;;;;0.20;0.10;;;;;;;;;;4981244;28;20045;-88
2022/12/04 09:06:42;;;;;;;0.20;0.10;;;;;;;;;;4973641;28;20139;-87
2022/12/04 09:09:11;;;;;;;0.20;0.10;;;;;;;;;;4963054;28;20799;-88
2022/12/04 09:11:37;;;;;;;0.20;0.20;;;;;;;;;;4970865;28;20615;-87
2022/12/04 09:14:03;;;;;;;0.20;0.13;;;;;;;;;;4977254;28;20284;-86
2022/12/04 09:16:30;;;;;;;0.20;0.10;;;;;;;;;;4972935;28;20108;-87
2022/12/04 09:26:26;;;;;;;;;;;;;;;;;;;;;
2022/12/04 09:31:37;;;;;;;0.20;0.10;;;;;;;;;;4987183;28;20054;-82
2022/12/04 09:34:03;;;;;;;0.20;0.10;;;;;;;;;;4953096;28;20069;-81
2022/12/04 09:36:29;;;;;;;0.20;0.10;;;;;;;;;;4947542;28;20035;-83
2022/12/04 09:38:55;;;;;;;0.20;0.10;;;;;;;;;;4980721;28;20038;-82
2022/12/04 09:41:30;;;;;;;0.20;0.10;;;;;;;;;;4966791;28;20325;-80
2022/12/04 09:43:59;;;;;;;0.20;0.10;;;;;;;;;;5030897;23;20144;-80
2022/12/04 09:46:40;;;;;;;0.20;0.10;;;;;;;;;;5000419;28;20044;-82
2022/12/04 09:49:26;;;;;;;0.22;0.15;;;;;;;;;;5015900;28;20045;-84
2022/12/04 09:51:54;;;;;;;0.63;0.63;;;;;;;;;;5000268;28;20069;-83
2022/12/04 09:54:22;;;;;;;0.25;0.25;;;;;;;;;;5010830;28;20051;-84
2022/12/04 09:56:53;;;;;;;0.20;0.10;;;;;;;;;;5041840;28;20059;-85
2022/12/04 09:59:21;;;;;;;0.20;0.10;;;;;;;;;;5032399;28;20041;-83
2022/12/04 10:01:50;;;;;;;0.20;0.10;;;;;;;;;;5001006;28;20479;-81
2022/12/04 10:04:18;;;;;;;0.20;0.10;;;;;;;;;;5022308;28;20099;-82
2022/12/04 10:06:49;;;;;;;0.20;0.10;;;;;;;;;;5017462;28;20061;-81
2022/12/04 10:09:15;;;;;;;0.20;0.10;;;;;;;;;;5008652;28;20699;-85
2022/12/04 10:11:48;;;;;;;0.20;0.10;;;;;;;;;;5015916;28;20124;-82
2022/12/04 10:14:17;;;;;;;0.30;0.30;;;;;;;;;;5001922;28;20037;-82
2022/12/04 10:16:43;;;;;;;0.20;0.10;;;;;;;;;;5010639;28;20052;-82
2022/12/04 10:19:24;;;;;;;0.20;0.10;;;;;;;;;;5030483;28;20040;-83
2022/12/04 10:22:00;;;;;;;0.20;0.10;;;;;;;;;;5013014;28;20046;-82
2022/12/04 10:24:49;;;;;;;0.47;0.43;;;;;;;;;;5015288;28;20120;-83
2022/12/04 10:27:21;;;;;;;0.63;0.63;;;;;;;;;;5001220;28;20048;-84
2022/12/04 10:29:49;;;;;;;0.82;0.75;;;;;;;;;;5020691;28;20457;-84
2022/12/04 10:32:18;;;;;;;0.30;0.30;;;;;;;;;;5014222;28;20049;-82
2022/12/04 10:34:44;;;;;;;0.40;0.40;;;;;;;;;;4999056;28;20040;-83
2022/12/04 10:37:14;;;;;;;0.73;0.73;;;;;;;;;;5004836;28;20052;-84
2022/12/04 10:39:52;;;;;;;0.20;0.10;;;;;;;;;;5010647;28;20503;-83
2022/12/04 10:42:44;;;;;;;0.20;0.10;;;;;;;;;;5035179;28;20036;-83
2022/12/04 10:45:11;;;;;;;0.20;0.10;;;;;;;;;;5008530;28;20045;-82
2022/12/04 10:47:39;;;;;;;0.20;0.10;;;;;;;;;;4997724;28;20469;-83
2022/12/04 10:50:12;;;;;;;1.95;0.77;;;;;;;;;;5024924;28;20099;-84
2022/12/04 10:52:41;;;;;;;0.20;0.10;;;;;;;;;;5002192;28;20045;-84
2022/12/04 10:55:07;;;;;;;0.20;0.10;;;;;;;;;;5012172;28;20044;-82
2022/12/04 10:57:34;;;;;;;0.20;0.10;;;;;;;;;;5032134;28;20120;-83
2022/12/04 11:00:00;;;;;;;0.20;0.10;;;;;;;;;;5015881;28;20041;-84
2022/12/04 11:02:26;;;;;;;0.20;0.10;;;;;;;;;;5030182;28;20171;-85
2022/12/04 11:04:57;;;;;;;0.30;0.30;;;;;;;;;;5021214;28;20120;-82
2022/12/04 11:07:24;;;;;;;0.57;0.57;;;;;;;;;;5010958;28;20648;-82
2022/12/04 11:10:00;;;;;;;0.20;0.10;;;;;;;;;;4999670;28;20098;-82
2022/12/04 11:12:26;;;;;;;0.20;0.13;;;;;;;;;;5034903;28;20041;-81
2022/12/04 11:15:01;;;;;;;0.20;0.10;;;;;;;;;;5016859;28;22898;-79
2022/12/04 11:17:27;;;;;;;1.00;1.00;;;;;;;;;;5034106;28;20065;-85
2022/12/04 11:20:15;;;;;;;0.20;0.20;;;;;;;;;;5016825;28;20057;-82
2022/12/04 11:22:52;;;;;;;0.20;0.10;;;;;;;;;;5017357;28;20029;-82
2022/12/04 11:25:19;;;;;;;0.20;0.10;;;;;;;;;;5003622;28;20086;-82
2022/12/04 11:27:47;;;;;;;1.25;1.13;;;;;;;;;;5035198;28;20081;-83
2022/12/04 11:30:15;;;;;;;0.20;0.10;;;;;;;;;;5016701;28;20041;-82
2022/12/04 11:32:43;;;;;;;0.20;0.10;;;;;;;;;;5010639;28;20059;-84
2022/12/04 11:35:16;;;;;;;0.70;0.68;;;;;;;;;;5023350;28;20036;-83
2022/12/04 11:37:50;;;;;;;0.25;0.25;;;;;;;;;;5016359;28;20029;-84
2022/12/04 11:40:17;;;;;;;0.20;0.10;;;;;;;;;;5021770;28;20044;-83
2022/12/04 11:42:43;;;;;;;0.20;0.10;;;;;;;;;;5032122;28;20415;-83
2022/12/04 11:45:20;;;;;;;0.38;0.38;;;;;;;;;;5004132;28;20056;-83
2022/12/04 11:47:57;;;;;;;0.20;0.10;;;;;;;;;;5038059;28;20041;-83
2022/12/04 11:50:33;;;;;;;0.38;0.32;;;;;;;;;;5005277;28;20187;-83
2022/12/04 11:52:59;;;;;;;0.20;0.20;;;;;;;;;;5012260;28;20464;-84
2022/12/04 11:55:33;;;;;;;0.20;0.20;;;;;;;;;;5016225;28;20047;-82
2022/12/04 11:58:23;;;;;;;0.43;0.40;;;;;;;;;;5031453;28;20049;-83
2022/12/04 12:01:08;;;;;;;0.95;0.95;;;;;;;;;;5011631;28;20120;-82
2022/12/04 12:03:37;;;;;;;0.20;0.10;;;;;;;;;;4999752;28;20552;-83
2022/12/04 12:06:09;;;;;;;0.30;0.30;;;;;;;;;;5013190;28;20128;-85
2022/12/04 12:08:48;;;;;;;0.20;0.10;;;;;;;;;;5025679;28;20048;-83
2022/12/04 12:11:37;;;;;;;0.32;0.32;;;;;;;;;;5013328;28;20033;-83
2022/12/04 12:14:18;;;;;;;0.20;0.10;;;;;;;;;;5013228;28;20148;-84
2022/12/04 12:16:47;;;;;;;0.20;0.10;;;;;;;;;;5021272;28;20041;-84
2022/12/04 12:19:16;;;;;;;0.20;0.10;;;;;;;;;;5008948;28;20037;-83
2022/12/04 12:21:42;;;;;;;0.20;0.10;;;;;;;;;;5013982;28;20033;-83
2022/12/04 12:24:24;;;;;;;1.42;1.33;;;;;;;;;;5017226;28;20040;-83
2022/12/04 12:27:02;;;;;;;0.20;0.10;;;;;;;;;;5003112;28;20537;-83
2022/12/04 12:29:47;;;;;;;0.20;0.10;;;;;;;;;;5005215;28;20120;-83
2022/12/04 12:32:32;;;;;;;0.20;0.20;;;;;;;;;;5023644;28;20302;-83
2022/12/04 12:34:58;;;;;;;0.20;0.10;;;;;;;;;;5020217;28;20037;-83
2022/12/04 12:37:35;;;;;;;0.20;0.10;;;;;;;;;;5027073;28;20042;-82
2022/12/04 12:40:14;;;;;;;1.85;1.75;;;;;;;;;;5029584;28;20075;-84
2022/12/04 12:42:47;;;;;;;0.20;0.10;;;;;;;;;;5006420;28;20043;-83
2022/12/04 12:45:26;;;;;;;0.20;0.10;;;;;;;;;;5023679;28;20037;-83
2022/12/04 12:47:54;;;;;;;1.00;1.00;;;;;;;;;;5019842;28;20033;-84
2022/12/04 12:50:23;;;;;;;0.20;0.10;;;;;;;;;;5021445;28;20053;-83
2022/12/04 12:52:59;;;;;;;0.20;0.10;;;;;;;;;;5003893;28;20055;-83
2022/12/04 12:55:25;;;;;;;0.20;0.10;;;;;;;;;;5037622;28;20037;-82
2022/12/04 12:58:01;;;;;;;0.20;0.10;;;;;;;;;;5021080;28;20127;-81
2022/12/04 13:00:29;;;;;;;0.20;0.10;;;;;;;;;;5004090;28;20037;-82
2022/12/04 13:02:58;;;;;;;0.20;0.10;;;;;;;;;;5017449;28;20033;-84
2022/12/04 13:05:27;;;;;;;0.20;0.10;;;;;;;;;;4998367;28;20101;-83
2022/12/04 13:08:22;;;;;;;0.93;0.73;;;;;;;;;;5002825;28;20040;-82
2022/12/04 13:10:53;;;;;;;0.20;0.10;;;;;;;;;;4981564;28;20501;-83
2022/12/04 13:13:27;;;;;;;0.20;0.10;;;;;;;;;;5029061;28;20080;-81
2022/12/04 13:15:58;;;;;;;0.20;0.20;;;;;;;;;;5029772;28;20033;-82
2022/12/04 13:18:30;;;;;;;0.20;0.10;;;;;;;;;;4995925;28;20088;-83
2022/12/04 13:20:58;;;;;;;0.75;0.75;;;;;;;;;;5019265;28;20041;-84
2022/12/04 13:23:27;;;;;;;0.20;0.10;;;;;;;;;;5021501;28;20033;-82
2022/12/04 13:26:02;;;;;;;0.20;0.10;;;;;;;;;;5033757;28;20033;-81
2022/12/04 13:28:44;;;;;;;0.20;0.10;;;;;;;;;;5005487;28;20432;-83
2022/12/04 13:31:34;;;;;;;0.20;0.10;;;;;;;;;;5003850;28;20045;-83
2022/12/04 13:34:19;;;;;;;0.20;0.10;;;;;;;;;;5006000;28;20068;-84
2022/12/04 13:36:55;;;;;;;0.35;0.32;;;;;;;;;;5017474;28;20063;-85
2022/12/04 13:39:40;;;;;;;0.30;0.30;;;;;;;;;;5035940;28;20093;-83
2022/12/04 13:42:18;;;;;;;0.20;0.10;;;;;;;;;;5019131;28;20095;-84
2022/12/04 13:44:52;;;;;;;0.35;0.35;;;;;;;;;;5014549;28;20033;-83
2022/12/04 13:47:25;;;;;;;2.17;2.00;;;;;;;;;;5004307;28;20371;-84
2022/12/04 13:49:51;;;;;;;0.20;0.10;;;;;;;;;;5013450;28;20840;-85
2022/12/04 13:52:35;;;;;;;0.20;0.10;;;;;;;;;;5017726;28;20738;-81
2022/12/04 13:55:01;;;;;;;0.20;0.10;;;;;;;;;;5023402;28;20033;-82
2022/12/04 13:57:27;;;;;;;0.20;0.10;;;;;;;;;;5039020;28;20048;-83
2022/12/04 14:00:07;;;;;;;0.47;0.47;;;;;;;;;;5021089;28;20092;-82
2022/12/04 14:02:36;;;;;;;0.20;0.10;;;;;;;;;;5017527;28;20033;-83
2022/12/04 14:05:07;;;;;;;0.35;0.32;;;;;;;;;;5003947;28;20041;-80
2022/12/04 14:07:37;;;;;;;0.20;0.10;;;;;;;;;;5036346;28;20499;-83
2022/12/04 14:10:07;;;;;;;0.70;0.70;;;;;;;;;;5019364;28;20040;-84
2022/12/04 14:12:36;;;;;;;1.10;1.00;;;;;;;;;;5021984;28;20044;-83
2022/12/04 14:15:07;;;;;;;0.20;0.13;;;;;;;;;;5031520;28;20044;-83
2022/12/04 14:17:34;;;;;;;2.28;2.15;;;;;;;;;;5035599;28;20045;-83
2022/12/04 14:20:02;;;;;;;0.20;0.10;;;;;;;;;;5036506;28;20563;-80
2022/12/04 14:22:48;;;;;;;0.25;0.25;;;;;;;;;;5008122;28;20087;-84
2022/12/04 14:25:14;;;;;;;0.43;0.40;;;;;;;;;;5019673;28;20069;-79
2022/12/04 14:27:40;;;;;;;0.20;0.10;;;;;;;;;;5018944;28;20091;-83
2022/12/04 14:30:18;;;;;;;0.20;0.17;;;;;;;;;;5005611;28;20061;-82
2022/12/04 14:32:45;;;;;;;0.20;0.10;;;;;;;;;;5018818;28;20048;-81
2022/12/04 14:35:23;;;;;;;0.20;0.13;;;;;;;;;;5019441;28;20045;-79
2022/12/04 14:37:52;;;;;;;0.20;0.10;;;;;;;;;;5020786;28;20873;-83
2022/12/04 14:40:21;;;;;;;0.20;0.10;;;;;;;;;;5005100;28;20033;-84
2022/12/04 14:42:48;;;;;;;0.20;0.10;;;;;;;;;;4994740;28;20510;-82
2022/12/04 14:45:17;;;;;;;0.20;0.10;;;;;;;;;;5021129;28;20387;-83
2022/12/04 14:47:52;;;;;;;0.60;0.60;;;;;;;;;;4998969;28;20072;-83
2022/12/04 14:50:38;;;;;;;0.20;0.10;;;;;;;;;;5018556;28;20045;-84
2022/12/04 14:53:10;;;;;;;0.32;0.20;;;;;;;;;;5015002;28;20076;-83
2022/12/04 14:55:45;;;;;;;0.20;0.15;;;;;;;;;;5010011;28;20073;-82
2022/12/04 14:58:33;;;;;;;0.25;0.25;;;;;;;;;;5016413;28;20060;-82
2022/12/04 15:01:04;;;;;;;0.20;0.10;;;;;;;;;;5024097;28;20605;-84
2022/12/04 15:03:31;;;;;;;0.20;0.10;;;;;;;;;;5015852;28;20053;-82
2022/12/04 15:06:01;;;;;;;0.20;0.10;;;;;;;;;;5001841;28;20078;-80
2022/12/04 15:08:27;;;;;;;0.20;0.20;;;;;;;;;;5012170;28;20048;-84
2022/12/04 15:13:38;;;;;;;0.20;0.20;;;;;;;;;;5035988;28;20141;-82
2022/12/04 15:16:09;;;;;;;0.20;0.13;;;;;;;;;;5014375;28;20118;-84
2022/12/04 15:18:35;;;;;;;0.20;0.10;;;;;;;;;;5016779;28;20086;-82
2022/12/04 15:21:02;;;;;;;0.20;0.15;;;;;;;;;;5019935;28;20037;-82
2022/12/04 15:23:30;;;;;;;0.20;0.10;;;;;;;;;;5015190;28;20053;-83
2022/12/04 15:25:57;;;;;;;0.20;0.10;;;;;;;;;;5015351;28;20099;-83
2022/12/04 15:28:32;;;;;;;0.20;0.10;;;;;;;;;;5012939;28;20449;-79
2022/12/04 15:30:59;;;;;;;2.53;2.40;;;;;;;;;;5022318;28;20087;-83
2022/12/04 15:33:26;;;;;;;0.20;0.10;;;;;;;;;;5031319;28;20051;-82
2022/12/04 15:35:56;;;;;;;0.40;0.40;;;;;;;;;;5012535;28;20114;-80
2022/12/04 15:38:22;;;;;;;0.20;0.10;;;;;;;;;;5014160;28;20092;-83
2022/12/04 15:40:58;;;;;;;0.20;0.10;;;;;;;;;;5010654;28;20038;-81
2022/12/04 15:43:44;;;;;;;0.20;0.10;;;;;;;;;;5046284;23;20025;-84
2022/12/04 15:46:15;;;;;;;0.20;0.10;;;;;;;;;;5050429;28;20041;-89